createdAt,value
2018-06-14T00:00:34.981Z,1.42
2018-06-14T00:03:03.324Z,1.22
2018-06-14T00:05:31.690Z,1.10
2018-06-14T00:08:00.020Z,1.55
2018-06-14T00:10:28.414Z,1.60
2018-06-14T00:12:56.464Z,1.35
2018-06-14T00:15:24.732Z,1.30
2018-06-14T00:17:53.044Z,1.30
2018-06-14T00:20:21.463Z,1.30
2018-06-14T00:22:49.781Z,1.20
2018-06-14T00:25:18.045Z,1.50
2018-06-14T00:27:46.324Z,1.30
2018-06-14T00:30:14.624Z,1.20
2018-06-14T00:32:42.622Z,1.27
2018-06-14T00:35:10.911Z,1.50
2018-06-14T00:37:39.211Z,1.45
2018-06-14T00:40:07.539Z,1.37
2018-06-14T00:42:35.820Z,1.52
2018-06-14T00:45:04.224Z,1.12
2018-06-14T00:47:32.555Z,1.20
2018-06-14T00:50:00.852Z,1.50
2018-06-14T00:52:29.189Z,1.25
2018-06-14T00:54:57.481Z,1.00
2018-06-14T00:57:27.683Z,1.40
2018-06-14T00:59:56.460Z,1.40
2018-06-14T01:02:24.538Z,1.10
2018-06-14T01:04:52.867Z,1.27
2018-06-14T01:07:21.120Z,1.45
2018-06-14T01:09:49.235Z,1.47
2018-06-14T01:12:17.487Z,1.37
2018-06-14T01:14:45.827Z,1.30
2018-06-14T01:17:14.184Z,1.20
2018-06-14T01:19:42.507Z,1.57
2018-06-14T01:22:10.503Z,1.30
2018-06-14T01:24:38.753Z,1.32
2018-06-14T01:27:08.335Z,1.50
2018-06-14T01:29:36.780Z,1.40
2018-06-14T01:32:05.159Z,1.62
2018-06-14T01:34:33.442Z,1.90
2018-06-14T01:37:01.768Z,1.35
2018-06-14T01:39:30.127Z,1.62
2018-06-14T01:41:58.409Z,1.20
2018-06-14T01:44:26.688Z,1.60
2018-06-14T01:46:54.983Z,1.40
2018-06-14T01:49:23.272Z,1.42
2018-06-14T01:51:51.624Z,1.67
2018-06-14T01:54:19.934Z,1.60
2018-06-14T01:56:48.173Z,1.50
2018-06-14T01:59:16.894Z,1.60
2018-06-14T02:01:45.214Z,1.80
2018-06-14T02:04:13.456Z,1.62
2018-06-14T02:06:41.759Z,1.57
2018-06-14T02:09:10.463Z,1.72
2018-06-14T02:11:38.840Z,1.60
2018-06-14T02:14:07.339Z,1.75
2018-06-14T02:16:35.624Z,1.85
2018-06-14T02:19:03.993Z,1.80
2018-06-14T02:21:32.236Z,2.00
2018-06-14T02:24:00.508Z,1.70
2018-06-14T02:26:28.785Z,1.70
2018-06-14T02:28:57.067Z,1.60
2018-06-14T02:31:25.331Z,1.67
2018-06-14T02:33:53.793Z,1.60
2018-06-14T02:36:22.110Z,1.80
2018-06-14T02:38:50.407Z,1.90
2018-06-14T02:41:18.704Z,2.17
2018-06-14T02:43:46.734Z,1.80
2018-06-14T02:46:15.020Z,1.72
2018-06-14T02:48:43.307Z,1.62
2018-06-14T02:51:11.557Z,1.85
2018-06-14T02:53:39.837Z,2.08
2018-06-14T02:56:08.203Z,1.60
2018-06-14T02:58:36.625Z,1.92
2018-06-14T03:01:04.906Z,1.70
2018-06-14T03:03:33.161Z,2.10
2018-06-14T03:06:01.407Z,2.12
2018-06-14T03:08:29.960Z,2.20
2018-06-14T03:10:58.186Z,1.52
2018-06-14T03:13:26.493Z,2.05
2018-06-14T03:15:54.782Z,2.20
2018-06-14T03:18:23.116Z,1.85
2018-06-14T03:20:51.389Z,2.10
2018-06-14T03:23:19.710Z,2.35
2018-06-14T03:25:47.703Z,1.87
2018-06-14T03:28:15.988Z,2.10
2018-06-14T03:30:44.331Z,2.10
2018-06-14T03:33:12.610Z,2.10
2018-06-14T03:35:40.598Z,1.82
2018-06-14T03:38:09.257Z,1.80
2018-06-14T03:40:37.538Z,2.47
2018-06-14T03:45:40.615Z,1.90
2018-06-14T03:48:09.009Z,2.10
2018-06-14T03:50:37.247Z,1.92
2018-06-14T03:53:05.528Z,2.40
2018-06-14T03:55:33.804Z,1.90
2018-06-14T03:58:02.093Z,2.27
2018-06-14T04:00:30.424Z,1.90
2018-06-14T04:02:58.801Z,2.10
2018-06-14T04:05:27.130Z,2.10
2018-06-14T04:07:55.383Z,2.33
2018-06-14T04:10:23.720Z,2.12
2018-06-14T04:12:52.049Z,2.20
2018-06-14T04:15:20.319Z,2.17
2018-06-14T04:17:52.892Z,1.73
2018-06-14T04:20:21.153Z,1.90
2018-06-14T04:22:49.443Z,2.07
2018-06-14T04:25:17.732Z,2.10
2018-06-14T04:27:46.000Z,2.10
2018-06-14T04:30:14.280Z,2.23
2018-06-14T04:32:42.564Z,2.30
2018-06-14T04:35:10.808Z,2.10
2018-06-14T04:37:39.115Z,2.10
2018-06-14T04:40:07.084Z,2.20
2018-06-14T04:42:35.367Z,2.20
2018-06-14T04:45:03.669Z,2.30
2018-06-14T04:47:31.932Z,2.47
2018-06-14T04:50:00.213Z,2.10
2018-06-14T04:52:28.496Z,2.07
2018-06-14T04:54:56.736Z,1.90
2018-06-14T04:57:24.984Z,2.17
2018-06-14T04:59:53.379Z,2.30
2018-06-14T05:02:21.698Z,2.13
2018-06-14T05:04:49.940Z,2.10
2018-06-14T05:07:18.235Z,2.20
2018-06-14T05:09:46.533Z,2.20
2018-06-14T05:12:14.829Z,2.30
2018-06-14T05:14:43.139Z,2.40
2018-06-14T05:17:11.441Z,2.17
2018-06-14T05:19:39.674Z,2.10
2018-06-14T05:22:07.678Z,1.83
2018-06-14T05:24:36.857Z,2.30
2018-06-14T05:27:05.343Z,2.10
2018-06-14T05:29:34.322Z,2.27
2018-06-14T05:32:02.606Z,2.30
2018-06-14T05:34:30.877Z,2.47
2018-06-14T05:36:59.152Z,2.30
2018-06-14T05:39:27.391Z,2.40
2018-06-14T05:42:02.201Z,2.40
2018-06-14T05:44:30.554Z,2.40
2018-06-14T05:46:58.499Z,2.30
2018-06-14T05:49:26.775Z,2.23
2018-06-14T05:51:55.042Z,2.40
2018-06-14T05:54:23.020Z,2.00
2018-06-14T05:56:51.324Z,2.67
2018-06-14T05:59:20.119Z,2.40
2018-06-14T06:01:48.523Z,2.47
2018-06-14T06:04:16.828Z,2.70
2018-06-14T06:06:45.103Z,2.87
2018-06-14T06:09:13.116Z,3.30
2018-06-14T06:11:41.424Z,2.77
2018-06-14T06:14:09.775Z,2.97
2018-06-14T06:16:38.049Z,3.00
2018-06-14T06:19:06.356Z,2.70
2018-06-14T06:21:34.598Z,2.73
2018-06-14T06:24:02.902Z,2.83
2018-06-14T06:26:31.240Z,2.60
2018-06-14T06:28:59.592Z,2.97
2018-06-14T06:31:27.636Z,2.30
2018-06-14T06:33:56.007Z,2.70
2018-06-14T06:36:24.392Z,2.70
2018-06-14T06:38:52.700Z,2.40
2018-06-14T06:41:20.762Z,3.10
2018-06-14T06:43:48.745Z,2.70
2018-06-14T06:46:16.712Z,2.07
2018-06-14T06:48:44.727Z,2.57
2018-06-14T06:51:13.026Z,1.83
2018-06-14T06:53:41.328Z,2.40
2018-06-14T06:56:09.656Z,2.33
2018-06-14T06:58:37.959Z,2.60
2018-06-14T07:01:06.252Z,2.30
2018-06-14T07:03:34.547Z,2.40
2018-06-14T07:06:02.889Z,2.40
2018-06-14T07:08:31.179Z,2.50
2018-06-14T07:10:59.524Z,2.50
2018-06-14T07:13:27.844Z,2.57
2018-06-14T07:15:55.847Z,2.70
2018-06-14T07:18:24.121Z,2.50
2018-06-14T07:20:52.632Z,2.47
2018-06-14T07:23:21.600Z,2.57
2018-06-14T07:25:51.519Z,2.30
2018-06-14T07:28:19.829Z,2.70
2018-06-14T07:30:48.165Z,2.57
2018-06-14T07:33:17.795Z,2.50
2018-06-14T07:35:46.285Z,2.40
2018-06-14T07:38:14.539Z,2.50
2018-06-14T07:40:42.828Z,2.63
2018-06-14T07:43:11.144Z,2.43
2018-06-14T07:45:39.436Z,2.20
2018-06-14T07:48:07.441Z,2.07
2018-06-14T07:50:35.776Z,2.00
2018-06-14T07:53:04.034Z,2.30
2018-06-14T07:55:32.350Z,2.13
2018-06-14T07:58:00.681Z,1.80
2018-06-14T08:00:28.969Z,2.30
2018-06-14T08:02:57.252Z,1.90
2018-06-14T08:05:25.561Z,2.10
2018-06-14T08:07:53.795Z,1.97
2018-06-14T08:10:22.079Z,2.10
2018-06-14T08:12:50.349Z,2.27
2018-06-14T08:15:18.617Z,2.40
2018-06-14T08:17:46.996Z,2.13
2018-06-14T08:20:15.251Z,2.60
2018-06-14T08:22:43.524Z,2.40
2018-06-14T08:25:12.011Z,2.27
2018-06-14T08:27:40.301Z,2.70
2018-06-14T08:30:08.573Z,2.80
2018-06-14T08:32:36.829Z,2.30
2018-06-14T08:35:05.091Z,2.10
2018-06-14T08:37:33.387Z,3.07
2018-06-14T08:40:01.669Z,2.73
2018-06-14T08:42:29.951Z,2.40
2018-06-14T08:44:58.280Z,2.30
2018-06-14T08:47:26.779Z,2.10
2018-06-14T08:49:55.176Z,2.13
2018-06-14T08:52:23.449Z,2.00
2018-06-14T08:54:51.743Z,2.20
2018-06-14T08:57:20.092Z,1.93
2018-06-14T08:59:48.404Z,2.10
2018-06-14T09:02:16.716Z,2.10
2018-06-14T09:04:45.027Z,2.37
2018-06-14T09:07:13.332Z,1.90
2018-06-14T09:09:41.773Z,2.33
2018-06-14T09:12:10.101Z,2.00
2018-06-14T09:14:38.481Z,1.70
2018-06-14T09:17:06.700Z,1.67
2018-06-14T09:19:35.157Z,2.10
2018-06-14T09:22:03.205Z,2.03
2018-06-14T09:24:31.458Z,2.37
2018-06-14T09:26:59.789Z,2.40
2018-06-14T09:29:28.608Z,1.87
2018-06-14T09:31:56.924Z,2.43
2018-06-14T09:34:25.219Z,2.50
2018-06-14T09:36:53.506Z,1.73
2018-06-14T09:39:21.827Z,1.77
2018-06-14T09:41:50.145Z,2.03
2018-06-14T09:44:18.408Z,2.20
2018-06-14T09:46:46.708Z,1.77
2018-06-14T09:49:16.268Z,2.23
2018-06-14T09:51:46.067Z,2.40
2018-06-14T09:54:14.394Z,2.00
2018-06-14T09:56:42.689Z,2.40
2018-06-14T09:59:10.681Z,1.70
2018-06-14T10:01:39.076Z,2.30
2018-06-14T10:04:07.534Z,1.80
2018-06-14T10:06:35.869Z,2.10
2018-06-14T10:09:07.100Z,1.97
2018-06-14T10:11:35.516Z,2.37
2018-06-14T10:14:03.760Z,1.70
2018-06-14T10:16:32.048Z,2.20
2018-06-14T10:19:00.339Z,1.63
2018-06-14T10:21:28.405Z,1.50
2018-06-14T10:23:56.712Z,1.77
2018-06-14T10:26:24.980Z,2.20
2018-06-14T10:28:53.267Z,2.20
2018-06-14T10:31:21.563Z,2.33
2018-06-14T10:33:49.857Z,2.17
2018-06-14T10:36:18.119Z,2.70
2018-06-14T10:38:46.495Z,1.80
2018-06-14T10:41:14.846Z,2.27
2018-06-14T10:43:43.168Z,2.30
2018-06-14T10:46:11.459Z,1.90
2018-06-14T10:48:39.750Z,2.03
2018-06-14T10:51:08.074Z,1.80
2018-06-14T10:53:36.338Z,1.90
2018-06-14T10:56:04.627Z,2.03
2018-06-14T10:58:32.940Z,2.00
2018-06-14T11:01:01.234Z,1.90
2018-06-14T11:03:29.511Z,1.57
2018-06-14T11:05:57.613Z,1.80
2018-06-14T11:08:25.819Z,1.93
2018-06-14T11:10:54.114Z,2.17
2018-06-14T11:13:22.379Z,2.23
2018-06-14T11:15:50.631Z,2.03
2018-06-14T11:18:18.944Z,2.10
2018-06-14T11:20:47.310Z,1.80
2018-06-14T11:23:15.659Z,2.00
2018-06-14T11:25:43.934Z,1.80
2018-06-14T11:28:12.277Z,1.43
2018-06-14T11:30:40.511Z,1.47
2018-06-14T11:33:08.805Z,1.50
2018-06-14T11:35:37.084Z,1.73
2018-06-14T11:38:05.365Z,2.00
2018-06-14T11:40:33.635Z,1.37
2018-06-14T11:43:02.023Z,2.10
2018-06-14T11:45:30.332Z,1.63
2018-06-14T11:47:58.611Z,2.10
2018-06-14T11:50:26.876Z,1.80
2018-06-14T11:52:54.859Z,1.60
2018-06-14T11:55:23.136Z,2.23
2018-06-14T11:57:51.422Z,1.67
2018-06-14T12:00:19.737Z,1.30
2018-06-14T12:02:47.998Z,1.30
2018-06-14T12:05:16.323Z,1.40
2018-06-14T12:07:44.580Z,1.57
2018-06-14T12:10:12.836Z,1.47
2018-06-14T12:12:41.141Z,1.30
2018-06-14T12:15:09.485Z,1.17
2018-06-14T12:17:37.707Z,2.20
2018-06-14T12:20:05.704Z,1.67
2018-06-14T12:22:33.936Z,1.60
2018-06-14T12:25:02.194Z,1.67
2018-06-14T12:27:30.454Z,1.70
2018-06-14T12:29:58.683Z,1.50
2018-06-14T12:32:27.016Z,1.60
2018-06-14T12:34:55.347Z,1.50
2018-06-14T12:37:23.599Z,1.40
2018-06-14T12:39:51.872Z,1.40
2018-06-14T12:42:20.180Z,1.90
2018-06-14T12:44:48.457Z,1.67
2018-06-14T12:47:16.725Z,1.13
2018-06-14T12:49:44.993Z,1.40
2018-06-14T12:52:13.234Z,1.50
2018-06-14T12:54:41.628Z,1.43
2018-06-14T12:57:09.915Z,1.40
2018-06-14T12:59:38.389Z,1.60
2018-06-14T13:02:06.682Z,1.30
2018-06-14T13:04:34.904Z,1.40
2018-06-14T13:07:03.247Z,1.57
2018-06-14T13:09:31.585Z,1.17
2018-06-14T13:11:59.861Z,1.60
2018-06-14T13:14:28.176Z,1.77
2018-06-14T13:16:56.179Z,1.50
2018-06-14T13:19:24.444Z,1.63
2018-06-14T13:21:52.757Z,1.50
2018-06-14T13:24:21.007Z,1.40
2018-06-14T13:26:49.307Z,1.70
2018-06-14T13:29:17.971Z,1.50
2018-06-14T13:31:46.198Z,1.20
2018-06-14T13:34:14.504Z,1.43
2018-06-14T13:36:42.794Z,1.10
2018-06-14T13:39:11.111Z,1.60
2018-06-14T13:41:39.412Z,1.40
2018-06-14T13:44:07.420Z,1.27
2018-06-14T13:46:39.503Z,1.40
2018-06-14T13:49:08.534Z,1.57
2018-06-14T13:51:36.516Z,1.50
2018-06-14T13:54:04.509Z,1.30
2018-06-14T13:56:32.936Z,1.53
2018-06-14T13:59:01.167Z,1.60
2018-06-14T14:01:29.528Z,1.50
2018-06-14T14:03:57.819Z,1.27
2018-06-14T14:06:26.143Z,1.30
2018-06-14T14:08:54.399Z,1.27
2018-06-14T14:11:22.648Z,1.20
2018-06-14T14:13:50.952Z,1.93
2018-06-14T14:16:19.256Z,1.30
2018-06-14T14:18:47.500Z,1.50
2018-06-14T14:21:15.776Z,1.20
2018-06-14T14:23:44.072Z,1.47
2018-06-14T14:26:12.368Z,1.33
2018-06-14T14:28:40.741Z,1.40
2018-06-14T14:31:09.030Z,1.20
2018-06-14T14:33:37.332Z,1.63
2018-06-14T14:36:05.642Z,1.50
2018-06-14T14:38:33.953Z,1.27
2018-06-14T14:41:02.269Z,1.50
2018-06-14T14:43:30.513Z,1.40
2018-06-14T14:45:58.804Z,1.30
2018-06-14T14:48:27.077Z,1.20
2018-06-14T14:50:55.470Z,1.07
2018-06-14T14:53:23.711Z,1.33
2018-06-14T14:55:52.021Z,1.23
2018-06-14T14:58:20.273Z,1.37
2018-06-14T15:00:48.547Z,1.50
2018-06-14T15:03:16.907Z,1.40
2018-06-14T15:05:45.184Z,1.10
2018-06-14T15:08:13.472Z,1.20
2018-06-14T15:10:41.715Z,1.20
2018-06-14T15:13:09.980Z,1.33
2018-06-14T15:15:38.269Z,1.30
2018-06-14T15:18:06.625Z,1.23
2018-06-14T15:20:34.971Z,1.33
2018-06-14T15:23:03.212Z,1.40
2018-06-14T15:25:31.517Z,1.17
2018-06-14T15:27:59.821Z,1.20
2018-06-14T15:30:27.847Z,1.10
2018-06-14T15:32:56.161Z,1.20
2018-06-14T15:35:24.165Z,1.30
2018-06-14T15:37:52.519Z,1.00
2018-06-14T15:40:20.908Z,1.40
2018-06-14T15:42:49.321Z,1.30
2018-06-14T15:45:17.597Z,1.37
2018-06-14T15:47:45.851Z,1.40
2018-06-14T15:50:14.091Z,1.23
2018-06-14T15:52:42.092Z,1.50
2018-06-14T15:55:21.708Z,1.40
2018-06-14T15:57:50.175Z,1.17
2018-06-14T16:00:18.631Z,1.50
2018-06-14T16:02:46.932Z,1.40
2018-06-14T16:05:17.648Z,1.63
2018-06-14T16:07:46.823Z,1.30
2018-06-14T16:10:15.583Z,2.00
2018-06-14T16:12:43.825Z,1.60
2018-06-14T16:15:12.089Z,1.73
2018-06-14T16:17:40.328Z,1.83
2018-06-14T16:20:08.628Z,1.80
2018-06-14T16:22:36.925Z,1.90
2018-06-14T16:25:05.207Z,1.67
2018-06-14T16:27:33.482Z,2.20
2018-06-14T16:30:01.757Z,1.90
2018-06-14T16:32:30.065Z,2.27
2018-06-14T16:34:58.313Z,1.70
2018-06-14T16:37:26.584Z,2.10
2018-06-14T16:39:54.825Z,2.00
2018-06-14T16:42:23.080Z,2.23
2018-06-14T16:44:51.391Z,2.00
2018-06-14T16:47:19.692Z,1.83
2018-06-14T16:49:48.065Z,2.27
2018-06-14T16:52:16.359Z,1.97
2018-06-14T16:54:44.614Z,2.40
2018-06-14T16:57:12.920Z,2.20
2018-06-14T16:59:41.312Z,2.30
2018-06-14T17:02:09.340Z,2.53
2018-06-14T17:04:37.603Z,2.43
2018-06-14T17:07:05.908Z,2.57
2018-06-14T17:09:34.232Z,2.37
2018-06-14T17:12:02.522Z,2.37
2018-06-14T17:14:30.820Z,2.53
2018-06-14T17:16:59.129Z,2.53
2018-06-14T17:19:27.156Z,2.80
2018-06-14T17:21:55.461Z,2.40
2018-06-14T17:24:23.763Z,2.90
2018-06-14T17:26:51.748Z,2.70
2018-06-14T17:29:21.031Z,2.80
2018-06-14T17:31:49.528Z,2.63
2018-06-14T17:34:17.800Z,3.00
2018-06-14T17:36:46.082Z,3.20
2018-06-14T17:39:14.356Z,2.93
2018-06-14T17:41:42.825Z,2.70
2018-06-14T17:44:11.141Z,2.93
2018-06-14T17:46:39.423Z,2.70
2018-06-14T17:49:07.769Z,2.63
2018-06-14T17:51:35.751Z,2.77
2018-06-14T17:54:04.016Z,2.40
2018-06-14T17:56:32.377Z,2.60
2018-06-14T17:59:00.636Z,2.73
2018-06-14T18:01:28.935Z,2.87
2018-06-14T18:03:57.204Z,2.67
2018-06-14T18:06:25.478Z,2.93
2018-06-14T18:08:53.945Z,2.73
2018-06-14T18:11:22.210Z,3.10
2018-06-14T18:13:50.487Z,3.20
2018-06-14T18:16:18.787Z,3.07
2018-06-14T18:18:47.118Z,3.20
2018-06-14T18:21:15.469Z,2.87
2018-06-14T18:23:43.436Z,2.87
2018-06-14T18:26:11.767Z,3.90
2018-06-14T18:28:40.157Z,3.20
2018-06-14T18:31:08.438Z,3.50
2018-06-14T18:33:36.702Z,3.43
2018-06-14T18:36:05.073Z,3.50
2018-06-14T18:38:33.399Z,3.40
2018-06-14T18:41:01.653Z,3.30
2018-06-14T18:43:29.987Z,3.37
2018-06-14T18:45:58.292Z,3.57
2018-06-14T18:48:26.686Z,3.40
2018-06-14T18:50:54.979Z,3.50
2018-06-14T18:53:23.092Z,3.27
2018-06-14T18:55:51.458Z,3.40
2018-06-14T18:58:19.733Z,4.10
2018-06-14T19:00:47.988Z,3.63
2018-06-14T19:03:16.288Z,3.30
2018-06-14T19:05:44.527Z,3.80
2018-06-14T19:08:12.813Z,3.73
2018-06-14T19:10:41.079Z,4.17
2018-06-14T19:13:09.368Z,3.83
2018-06-14T19:15:37.340Z,3.50
2018-06-14T19:18:05.691Z,4.03
2018-06-14T19:20:33.933Z,3.60
2018-06-14T19:23:02.264Z,4.10
2018-06-14T19:25:30.524Z,3.90
2018-06-14T19:27:58.810Z,4.33
2018-06-14T19:30:27.135Z,4.37
2018-06-14T19:32:55.491Z,4.00
2018-06-14T19:35:23.792Z,4.13
2018-06-14T19:37:52.076Z,4.30
2018-06-14T19:40:20.360Z,4.10
2018-06-14T19:42:48.644Z,3.93
2018-06-14T19:45:16.961Z,4.33
2018-06-14T19:47:45.215Z,4.20
2018-06-14T19:50:13.531Z,4.80
2018-06-14T19:52:41.800Z,4.57
2018-06-14T19:55:10.100Z,4.23
2018-06-14T19:57:38.427Z,4.93
2018-06-14T20:00:06.435Z,4.90
2018-06-14T20:02:34.840Z,5.17
2018-06-14T20:05:03.209Z,4.50
2018-06-14T20:07:31.535Z,4.73
2018-06-14T20:09:59.808Z,4.47
2018-06-14T20:12:28.139Z,4.13
2018-06-14T20:14:56.445Z,5.37
2018-06-14T20:17:24.699Z,5.57
2018-06-14T20:19:52.977Z,5.07
2018-06-14T20:22:21.277Z,5.10
2018-06-14T20:24:49.665Z,5.13
2018-06-14T20:27:17.976Z,4.93
2018-06-14T20:29:46.104Z,5.47
2018-06-14T20:32:31.043Z,5.47
2018-06-14T20:34:59.408Z,5.53
2018-06-14T20:37:27.787Z,4.67
2018-06-14T20:39:56.085Z,5.03
2018-06-14T20:42:25.230Z,4.70
2018-06-14T20:44:53.518Z,5.23
2018-06-14T20:47:21.479Z,5.37
2018-06-14T20:52:24.461Z,5.07
2018-06-14T20:54:52.824Z,5.20
2018-06-14T20:57:21.085Z,4.90
2018-06-14T20:59:49.639Z,5.57
2018-06-14T21:02:17.931Z,5.43
2018-06-14T21:04:46.274Z,4.87
2018-06-14T21:07:14.518Z,4.90
2018-06-14T21:09:42.825Z,5.57
2018-06-14T21:12:11.117Z,5.13
2018-06-14T21:14:39.472Z,5.17
2018-06-14T21:17:07.780Z,4.53
2018-06-14T21:19:35.756Z,5.20
2018-06-14T21:22:04.061Z,5.13
2018-06-14T21:24:32.341Z,5.20
2018-06-14T21:27:00.634Z,4.50
2018-06-14T21:29:30.438Z,4.10
2018-06-14T21:31:58.864Z,4.60
2018-06-14T21:34:27.156Z,4.70
2018-06-14T21:36:55.498Z,4.90
2018-06-14T21:39:23.795Z,4.53
2018-06-14T21:41:51.802Z,4.80
2018-06-14T21:44:20.055Z,4.60
2018-06-14T21:46:48.356Z,4.70
2018-06-14T21:49:16.649Z,5.27
2018-06-14T21:51:44.924Z,4.30
2018-06-14T21:54:13.237Z,4.50
2018-06-14T21:56:41.524Z,4.43
2018-06-14T21:59:09.827Z,4.40
2018-06-14T22:01:38.083Z,4.50
2018-06-14T22:04:06.408Z,4.93
2018-06-14T22:06:34.739Z,4.77
2018-06-14T22:09:03.250Z,4.53
2018-06-14T22:11:31.532Z,4.63
2018-06-14T22:13:59.790Z,5.00
2018-06-14T22:16:28.087Z,4.63
2018-06-14T22:18:56.370Z,4.47
2018-06-14T22:21:24.673Z,4.70
2018-06-14T22:23:52.984Z,4.70
2018-06-14T22:26:21.005Z,4.83
2018-06-14T22:28:49.307Z,4.80
2018-06-14T22:31:17.553Z,4.70
2018-06-14T22:33:57.165Z,4.57
2018-06-14T22:36:25.435Z,4.17
2018-06-14T22:38:53.760Z,4.80
2018-06-14T22:41:22.061Z,4.83
2018-06-14T22:43:50.363Z,5.30
2018-06-14T22:46:18.649Z,4.40
2018-06-14T22:48:47.022Z,4.70
2018-06-14T22:51:18.858Z,5.03
2018-06-14T22:53:47.281Z,5.30
2018-06-14T22:56:15.612Z,5.00
2018-06-14T22:58:43.956Z,4.90
2018-06-14T23:01:51.222Z,4.80
2018-06-14T23:04:22.672Z,4.73
2018-06-14T23:06:50.927Z,4.30
2018-06-14T23:10:31.382Z,4.60
2018-06-14T23:12:59.467Z,4.43
2018-06-14T23:15:27.944Z,4.30
2018-06-14T23:17:58.435Z,4.00
2018-06-14T23:20:27.679Z,4.17
2018-06-14T23:22:56.981Z,4.30
2018-06-14T23:25:26.142Z,4.13
2018-06-14T23:27:54.493Z,4.37
2018-06-14T23:30:22.783Z,3.97
2018-06-14T23:32:51.165Z,4.00
2018-06-14T23:35:19.743Z,4.13
2018-06-14T23:37:48.164Z,3.20
2018-06-14T23:40:16.559Z,3.57
2018-06-14T23:42:44.879Z,4.00
2018-06-14T23:45:13.164Z,3.77
2018-06-14T23:47:41.453Z,3.70
2018-06-14T23:50:09.733Z,3.30
2018-06-14T23:52:38.023Z,3.90
2018-06-14T23:55:06.096Z,3.87
2018-06-14T23:57:34.359Z,4.00
